createdAt,value
2018-09-22T00:00:25.527Z,10.48
2018-09-22T00:02:55.591Z,10.50
2018-09-22T00:05:25.913Z,10.50
2018-09-22T00:07:56.448Z,10.51
2018-09-22T00:10:27.129Z,10.63
2018-09-22T00:13:01.492Z,10.54
2018-09-22T00:15:32.285Z,10.42
2018-09-22T00:18:02.507Z,10.42
2018-09-22T00:20:34.956Z,10.42
2018-09-22T00:23:05.239Z,10.49
2018-09-22T00:25:35.513Z,10.61
2018-09-22T00:28:07.422Z,10.58
2018-09-22T00:30:37.820Z,10.67
2018-09-22T00:33:08.761Z,10.52
2018-09-22T00:35:39.368Z,10.60
2018-09-22T00:38:11.906Z,10.51
2018-09-22T00:40:42.805Z,10.63
2018-09-22T00:43:13.473Z,10.60
2018-09-22T00:45:45.429Z,10.67
2018-09-22T00:48:17.735Z,10.66
2018-09-22T00:50:49.569Z,10.73
2018-09-22T00:53:20.296Z,10.60
2018-09-22T00:55:50.798Z,10.64
2018-09-22T00:58:22.932Z,10.63
2018-09-22T01:00:54.322Z,10.56
2018-09-22T01:03:27.884Z,10.60
2018-09-22T01:05:58.567Z,10.64
2018-09-22T01:08:28.789Z,10.62
2018-09-22T01:11:00.735Z,10.68
2018-09-22T01:13:32.613Z,10.74
2018-09-22T01:16:03.713Z,10.58
2018-09-22T01:18:33.810Z,10.58
2018-09-22T01:21:04.353Z,10.62
2018-09-22T01:23:35.290Z,10.71
2018-09-22T01:26:08.690Z,10.70
2018-09-22T01:28:39.785Z,10.65
2018-09-22T01:31:09.934Z,10.79
2018-09-22T01:33:40.146Z,10.67
2018-09-22T01:36:10.375Z,10.75
2018-09-22T01:38:41.297Z,10.69
2018-09-22T01:41:12.728Z,10.70
2018-09-22T01:43:43.705Z,10.74
2018-09-22T01:46:15.700Z,10.68
2018-09-22T01:48:45.997Z,10.76
2018-09-22T01:51:18.668Z,10.82
2018-09-22T01:53:48.758Z,10.79
2018-09-22T01:56:18.881Z,10.90
2018-09-22T01:58:49.923Z,10.89
2018-09-22T02:01:21.870Z,10.94
2018-09-22T02:03:51.903Z,10.99
2018-09-22T02:06:22.325Z,10.98
2018-09-22T02:08:53.846Z,11.04
2018-09-22T02:11:23.888Z,11.05
2018-09-22T02:13:54.528Z,11.12
2018-09-22T02:16:24.891Z,11.11
2018-09-22T02:18:57.366Z,11.12
2018-09-22T02:21:27.593Z,11.08
2018-09-22T02:23:58.442Z,11.08
2018-09-22T02:26:28.795Z,11.18
2018-09-22T02:29:01.200Z,11.10
2018-09-22T02:31:31.961Z,11.14
2018-09-22T02:34:02.591Z,11.13
2018-09-22T02:36:32.885Z,11.18
2018-09-22T02:39:06.186Z,11.15
2018-09-22T02:41:36.093Z,11.15
2018-09-22T02:44:06.831Z,11.16
2018-09-22T02:46:37.186Z,11.15
2018-09-22T02:49:06.982Z,11.20
2018-09-22T02:51:36.670Z,11.13
2018-09-22T02:54:06.180Z,11.11
2018-09-22T02:56:36.500Z,11.13
2018-09-22T02:59:06.995Z,11.14
2018-09-22T03:01:36.740Z,11.17
2018-09-22T03:04:07.033Z,11.10
2018-09-22T03:06:37.406Z,11.15
2018-09-22T03:09:10.167Z,11.07
2018-09-22T03:11:41.250Z,11.12
2018-09-22T03:14:11.358Z,11.05
2018-09-22T03:16:41.860Z,10.99
2018-09-22T03:19:11.895Z,10.99
2018-09-22T03:21:42.099Z,11.01
2018-09-22T03:24:15.511Z,10.93
2018-09-22T03:26:55.998Z,10.90
2018-09-22T03:29:27.847Z,10.93
2018-09-22T03:32:01.011Z,10.94
2018-09-22T03:34:50.980Z,10.91
2018-09-22T03:37:22.142Z,10.86
2018-09-22T03:39:59.239Z,10.82
2018-09-22T03:42:29.597Z,10.87
2018-09-22T03:45:03.947Z,10.83
2018-09-22T03:47:47.113Z,10.80
2018-09-22T03:50:19.138Z,10.83
2018-09-22T03:52:49.277Z,10.89
2018-09-22T03:55:19.928Z,10.88
2018-09-22T03:57:59.376Z,10.87
2018-09-22T04:00:29.720Z,10.81
2018-09-22T04:02:59.744Z,10.83
2018-09-22T04:05:30.697Z,10.74
2018-09-22T04:08:00.660Z,10.76
2018-09-22T04:10:31.763Z,10.76
2018-09-22T04:13:02.395Z,10.78
2018-09-22T04:15:32.528Z,10.78
2018-09-22T04:18:02.545Z,10.81
2018-09-22T04:20:33.287Z,10.90
2018-09-22T04:23:06.046Z,10.95
2018-09-22T04:25:38.598Z,10.90
2018-09-22T04:28:08.743Z,10.73
2018-09-22T04:30:39.035Z,10.79
2018-09-22T04:33:09.452Z,10.83
2018-09-22T04:35:41.257Z,10.84
2018-09-22T04:38:26.330Z,10.73
2018-09-22T04:44:25.345Z,10.85
2018-09-22T04:50:12.524Z,10.88
2018-09-22T04:52:43.128Z,10.90
2018-09-22T04:55:14.433Z,10.89
2018-09-22T04:57:44.686Z,10.88
2018-09-22T05:00:17.151Z,10.90
2018-09-22T05:02:47.441Z,10.87
2018-09-22T05:05:17.622Z,10.82
2018-09-22T05:07:48.559Z,10.94
2018-09-22T05:10:18.537Z,11.07
2018-09-22T05:12:49.980Z,10.97
2018-09-22T05:15:20.096Z,11.04
2018-09-22T05:17:51.753Z,10.97
2018-09-22T05:20:23.511Z,11.02
2018-09-22T05:22:53.757Z,10.95
2018-09-22T05:25:32.270Z,10.94
2018-09-22T05:28:03.247Z,11.03
2018-09-22T05:30:35.354Z,11.00
2018-09-22T05:33:07.105Z,11.05
2018-09-22T05:35:37.738Z,11.04
2018-09-22T05:38:07.991Z,10.97
2018-09-22T05:40:38.592Z,10.95
2018-09-22T05:43:09.178Z,11.05
2018-09-22T05:45:41.295Z,10.94
2018-09-22T05:48:11.493Z,10.97
2018-09-22T05:50:43.835Z,10.95
2018-09-22T05:53:14.417Z,10.93
2018-09-22T05:55:47.404Z,11.06
2018-09-22T05:58:19.071Z,10.96
2018-09-22T06:00:50.313Z,11.13
2018-09-22T06:03:20.686Z,11.15
2018-09-22T06:05:50.809Z,11.20
2018-09-22T06:08:21.196Z,11.20
2018-09-22T06:10:51.482Z,11.23
2018-09-22T06:13:21.635Z,11.35
2018-09-22T06:15:56.140Z,11.27
2018-09-22T06:18:28.312Z,11.26
2018-09-22T06:21:01.211Z,11.24
2018-09-22T06:23:33.313Z,11.38
2018-09-22T06:26:06.666Z,11.48
2018-09-22T06:28:39.724Z,11.47
2018-09-22T06:31:10.438Z,11.59
2018-09-22T06:33:42.618Z,11.69
2018-09-22T06:36:15.723Z,11.79
2018-09-22T06:38:46.234Z,11.73
2018-09-22T06:41:18.914Z,11.77
2018-09-22T06:43:49.395Z,11.97
2018-09-22T06:46:20.303Z,11.99
2018-09-22T06:49:31.915Z,11.99
2018-09-22T06:52:02.953Z,12.06
2018-09-22T06:54:33.048Z,12.04
2018-09-22T06:57:05.938Z,12.01
2018-09-22T06:59:37.772Z,12.07
2018-09-22T07:02:09.549Z,12.16
2018-09-22T07:04:40.428Z,12.10
2018-09-22T07:07:10.657Z,12.15
2018-09-22T07:09:40.861Z,12.14
2018-09-22T07:12:11.083Z,12.42
2018-09-22T07:14:41.208Z,12.56
2018-09-22T07:17:11.834Z,12.79
2018-09-22T07:19:41.698Z,12.93
2018-09-22T07:22:16.735Z,13.01
2018-09-22T07:24:47.365Z,13.25
2018-09-22T07:27:17.543Z,13.10
2018-09-22T07:29:47.708Z,13.12
2018-09-22T07:32:21.718Z,13.01
2018-09-22T07:34:51.931Z,13.50
2018-09-22T07:37:23.635Z,13.53
2018-09-22T07:39:53.703Z,13.53
2018-09-22T07:42:26.154Z,13.42
2018-09-22T07:44:55.970Z,13.69
2018-09-22T07:47:26.376Z,13.25
2018-09-22T07:49:56.378Z,13.24
2018-09-22T07:52:26.360Z,13.34
2018-09-22T07:54:56.295Z,13.62
2018-09-22T07:57:26.284Z,13.47
2018-09-22T07:59:56.943Z,13.23
2018-09-22T08:02:27.030Z,13.46
2018-09-22T08:04:57.001Z,13.62
2018-09-22T08:07:26.995Z,13.93
2018-09-22T08:09:57.055Z,13.68
2018-09-22T08:12:27.518Z,13.35
2018-09-22T08:14:57.549Z,13.17
2018-09-22T08:17:27.542Z,13.21
2018-09-22T08:19:57.712Z,13.49
2018-09-22T08:22:27.617Z,13.80
2018-09-22T08:24:58.303Z,13.75
2018-09-22T08:27:28.524Z,13.99
2018-09-22T08:29:58.687Z,13.90
2018-09-22T08:32:28.668Z,13.91
2018-09-22T08:34:59.540Z,14.09
2018-09-22T08:37:29.517Z,13.99
2018-09-22T08:40:00.150Z,13.75
2018-09-22T08:42:30.674Z,13.50
2018-09-22T08:45:00.880Z,13.21
2018-09-22T08:47:31.223Z,12.98
2018-09-22T08:50:01.768Z,12.98
2018-09-22T08:53:25.230Z,13.08
2018-09-22T08:55:59.559Z,13.26
2018-09-22T08:58:31.221Z,13.43
2018-09-22T09:01:03.460Z,13.41
2018-09-22T09:03:33.938Z,13.67
2018-09-22T09:06:05.142Z,13.97
2018-09-22T09:08:37.117Z,13.85
2018-09-22T09:11:12.736Z,13.94
2018-09-22T09:13:44.749Z,14.01
2018-09-22T09:16:17.610Z,14.10
2018-09-22T09:18:48.598Z,13.99
2018-09-22T09:21:26.345Z,14.08
2018-09-22T09:23:57.681Z,14.31
2018-09-22T09:26:28.532Z,14.30
2018-09-22T09:28:59.301Z,14.28
2018-09-22T09:31:31.025Z,14.26
2018-09-22T09:34:02.750Z,14.03
2018-09-22T09:36:33.068Z,13.77
2018-09-22T09:39:04.085Z,13.63
2018-09-22T09:41:35.389Z,13.65
2018-09-22T09:44:06.231Z,13.59
2018-09-22T09:46:36.448Z,13.61
2018-09-22T09:49:09.149Z,13.09
2018-09-22T09:51:39.579Z,12.95
2018-09-22T09:55:07.272Z,13.20
2018-09-22T09:57:38.087Z,13.31
2018-09-22T10:00:10.133Z,13.26
2018-09-22T10:02:40.957Z,13.53
2018-09-22T10:05:13.886Z,13.64
2018-09-22T10:07:44.339Z,13.62
2018-09-22T10:10:14.807Z,13.65
2018-09-22T10:12:44.996Z,13.37
2018-09-22T10:15:15.452Z,13.15
2018-09-22T10:17:46.354Z,13.14
2018-09-22T10:20:20.412Z,13.27
2018-09-22T10:22:54.607Z,13.20
2018-09-22T10:27:25.683Z,13.25
2018-09-22T10:32:40.824Z,13.56
2018-09-22T10:35:12.224Z,13.52
2018-09-22T10:37:44.981Z,13.44
2018-09-22T10:40:18.452Z,13.66
2018-09-22T10:42:51.570Z,13.88
2018-09-22T10:45:21.972Z,13.72
2018-09-22T10:47:51.977Z,13.97
2018-09-22T10:50:22.393Z,14.21
2018-09-22T10:52:52.871Z,14.24
2018-09-22T10:55:23.057Z,14.41
2018-09-22T10:57:54.736Z,14.46
2018-09-22T11:00:27.710Z,14.51
2018-09-22T11:02:59.078Z,14.45
2018-09-22T11:05:31.855Z,14.40
2018-09-22T11:08:03.933Z,14.30
2018-09-22T11:10:37.186Z,14.31
2018-09-22T11:13:08.748Z,14.59
2018-09-22T11:15:42.794Z,14.80
2018-09-22T11:18:13.389Z,14.99
2018-09-22T11:20:44.328Z,14.98
2018-09-22T11:23:16.794Z,14.69
2018-09-22T11:25:47.543Z,14.82
2018-09-22T11:28:20.670Z,14.97
2018-09-22T11:30:53.811Z,15.02
2018-09-22T11:33:24.126Z,15.03
2018-09-22T11:36:07.468Z,15.03
2018-09-22T11:38:39.234Z,14.94
2018-09-22T11:41:14.664Z,14.89
2018-09-22T11:43:46.925Z,15.19
2018-09-22T11:46:18.326Z,15.34
2018-09-22T11:48:48.815Z,15.44
2018-09-22T11:53:59.936Z,15.82
2018-09-22T11:56:30.393Z,15.80
2018-09-22T11:59:01.023Z,15.86
2018-09-22T12:01:31.173Z,15.78
2018-09-22T12:04:01.407Z,15.67
2018-09-22T12:06:31.669Z,15.48
2018-09-22T12:09:03.891Z,15.47
2018-09-22T12:11:39.757Z,15.15
2018-09-22T12:14:13.027Z,15.23
2018-09-22T12:16:43.765Z,15.36
2018-09-22T12:19:14.192Z,15.53
2018-09-22T12:21:44.973Z,15.59
2018-09-22T12:24:15.278Z,15.72
2018-09-22T12:26:46.313Z,15.70
2018-09-22T12:29:20.820Z,15.67
2018-09-22T12:31:52.340Z,15.88
2018-09-22T12:34:23.507Z,15.83
2018-09-22T12:36:54.559Z,15.84
2018-09-22T12:39:24.883Z,15.76
2018-09-22T12:41:55.222Z,15.28
2018-09-22T12:44:26.258Z,14.94
2018-09-22T12:46:56.224Z,14.82
2018-09-22T12:49:27.177Z,14.49
2018-09-22T12:52:00.523Z,14.35
2018-09-22T12:54:37.195Z,14.26
2018-09-22T12:57:08.412Z,14.43
2018-09-22T12:59:39.823Z,14.56
2018-09-22T13:02:11.148Z,14.63
2018-09-22T13:04:42.133Z,14.72
2018-09-22T13:07:12.563Z,14.70
2018-09-22T13:09:43.069Z,14.84
2018-09-22T13:12:13.402Z,14.77
2018-09-22T13:14:44.376Z,14.91
2018-09-22T13:18:45.379Z,15.02
2018-09-22T13:21:15.536Z,15.15
2018-09-22T13:23:50.145Z,14.88
2018-09-22T13:26:22.003Z,14.83
2018-09-22T13:28:53.001Z,14.80
2018-09-22T13:31:23.655Z,14.93
2018-09-22T13:33:54.211Z,14.73
2018-09-22T13:36:26.589Z,14.61
2018-09-22T13:38:58.242Z,14.28
2018-09-22T13:41:29.140Z,14.16
2018-09-22T13:44:02.054Z,14.02
2018-09-22T13:46:34.016Z,14.04
2018-09-22T13:49:05.645Z,14.03
2018-09-22T13:51:37.469Z,14.10
2018-09-22T13:54:09.692Z,14.01
2018-09-22T13:56:40.474Z,14.02
2018-09-22T13:59:11.562Z,13.98
2018-09-22T14:01:42.878Z,14.00
2018-09-22T14:06:57.973Z,13.85
2018-09-22T14:09:28.292Z,13.87
2018-09-22T14:11:59.401Z,13.87
2018-09-22T14:14:30.505Z,13.92
2018-09-22T14:17:03.211Z,13.79
2018-09-22T14:19:33.903Z,14.00
2018-09-22T14:22:06.686Z,13.79
2018-09-22T14:24:40.953Z,13.85
2018-09-22T14:27:12.825Z,13.80
2018-09-22T14:29:47.291Z,13.83
2018-09-22T14:32:18.317Z,13.83
2018-09-22T14:37:28.258Z,13.77
2018-09-22T14:39:58.642Z,13.81
2018-09-22T14:42:30.811Z,13.89
2018-09-22T14:45:01.101Z,13.84
2018-09-22T14:47:32.688Z,13.88
2018-09-22T14:50:02.996Z,13.80
2018-09-22T14:52:33.416Z,13.83
2018-09-22T14:55:03.493Z,14.00
2018-09-22T14:57:33.763Z,14.14
2018-09-22T15:00:04.085Z,14.20
2018-09-22T15:02:34.431Z,14.22
2018-09-22T15:05:04.934Z,14.31
2018-09-22T15:07:37.630Z,14.38
2018-09-22T15:10:07.841Z,14.36
2018-09-22T15:12:38.468Z,14.45
2018-09-22T15:15:09.328Z,14.45
2018-09-22T15:17:39.975Z,14.43
2018-09-22T15:20:09.890Z,14.63
2018-09-22T15:22:41.923Z,14.56
2018-09-22T15:25:13.777Z,14.51
2018-09-22T15:27:44.174Z,14.50
2018-09-22T15:30:16.307Z,14.60
2018-09-22T15:32:48.236Z,14.64
2018-09-22T15:35:18.965Z,14.64
2018-09-22T15:37:51.355Z,14.75
2018-09-22T15:40:22.043Z,14.79
2018-09-22T15:42:52.362Z,14.76
2018-09-22T15:45:23.586Z,14.65
2018-09-22T15:47:55.664Z,14.68
2018-09-22T15:50:27.111Z,14.48
2018-09-22T15:52:59.639Z,14.52
2018-09-22T15:55:30.022Z,14.61
2018-09-22T15:58:00.848Z,14.54
2018-09-22T16:00:31.331Z,14.56
2018-09-22T16:03:02.890Z,14.48
2018-09-22T16:05:33.262Z,14.44
2018-09-22T16:08:03.842Z,14.46
2018-09-22T16:10:35.480Z,14.39
2018-09-22T16:13:06.039Z,14.36
2018-09-22T16:15:37.114Z,14.38
2018-09-22T16:18:08.763Z,14.33
2018-09-22T16:20:38.685Z,14.29
2018-09-22T16:23:11.787Z,14.35
2018-09-22T16:25:42.504Z,14.30
2018-09-22T16:28:13.611Z,14.14
2018-09-22T16:30:44.965Z,14.15
2018-09-22T16:33:15.018Z,14.19
2018-09-22T16:35:45.950Z,14.15
2018-09-22T16:38:15.927Z,14.07
2018-09-22T16:40:46.789Z,13.97
2018-09-22T16:43:17.032Z,13.85
2018-09-22T16:45:48.883Z,13.85
2018-09-22T16:48:19.898Z,13.83
2018-09-22T16:50:50.033Z,13.77
2018-09-22T16:53:20.976Z,13.85
2018-09-22T16:55:51.200Z,13.89
2018-09-22T16:58:22.147Z,13.78
2018-09-22T17:00:52.700Z,13.83
2018-09-22T17:03:23.639Z,13.72
2018-09-22T17:05:54.244Z,13.70
2018-09-22T17:08:26.533Z,13.75
2018-09-22T17:11:00.646Z,13.69
2018-09-22T17:13:33.698Z,13.62
2018-09-22T17:16:04.461Z,13.53
2018-09-22T17:18:38.772Z,13.56
2018-09-22T17:21:09.773Z,13.50
2018-09-22T17:23:42.202Z,13.55
2018-09-22T17:26:12.673Z,13.40
2018-09-22T17:28:42.689Z,13.30
2018-09-22T17:31:13.114Z,13.32
2018-09-22T17:33:43.872Z,13.32
2018-09-22T17:36:14.142Z,13.20
2018-09-22T17:38:44.726Z,13.25
2018-09-22T17:41:14.890Z,13.30
2018-09-22T17:43:47.109Z,13.25
2018-09-22T17:46:19.020Z,13.27
2018-09-22T17:48:51.394Z,13.33
2018-09-22T17:51:21.971Z,13.13
2018-09-22T17:53:51.930Z,13.19
2018-09-22T17:56:23.184Z,13.04
2018-09-22T17:58:54.300Z,13.07
2018-09-22T18:01:24.866Z,13.16
2018-09-22T18:03:55.197Z,13.21
2018-09-22T18:06:25.431Z,13.16
2018-09-22T18:08:56.029Z,13.00
2018-09-22T18:11:26.203Z,13.02
2018-09-22T18:13:56.885Z,13.14
2018-09-22T18:16:28.072Z,13.03
2018-09-22T18:19:00.641Z,12.79
2018-09-22T18:21:31.545Z,12.82
2018-09-22T18:24:03.811Z,12.67
2018-09-22T18:26:36.062Z,12.80
2018-09-22T18:29:07.960Z,12.58
2018-09-22T18:31:38.361Z,12.50
2018-09-22T18:34:09.269Z,12.29
2018-09-22T18:36:42.376Z,12.43
2018-09-22T18:39:15.609Z,12.47
2018-09-22T18:41:45.922Z,12.50
2018-09-22T18:44:16.119Z,12.48
2018-09-22T18:46:46.751Z,12.38
2018-09-22T18:49:17.120Z,12.28
2018-09-22T18:51:47.189Z,12.06
2018-09-22T18:54:18.595Z,12.06
2018-09-22T18:56:49.013Z,12.13
2018-09-22T18:59:20.051Z,12.11
2018-09-22T19:01:51.042Z,11.94
2018-09-22T19:04:22.365Z,11.94
2018-09-22T19:06:52.975Z,12.02
2018-09-22T19:09:23.044Z,12.05
2018-09-22T19:11:53.851Z,11.74
2018-09-22T19:14:32.860Z,11.75
2018-09-22T19:17:13.580Z,11.69
2018-09-22T19:19:48.207Z,11.85
2018-09-22T19:22:33.643Z,11.78
2018-09-22T19:25:06.807Z,11.73
2018-09-22T19:27:44.355Z,11.73
2018-09-22T19:30:49.036Z,11.84
2018-09-22T19:33:37.271Z,11.72
2018-09-22T19:36:11.733Z,11.74
2018-09-22T19:38:52.417Z,11.84
2018-09-22T19:41:26.125Z,11.72
2018-09-22T19:44:21.144Z,11.70
2018-09-22T19:46:56.421Z,11.68
2018-09-22T19:49:33.446Z,11.84
2018-09-22T19:52:07.484Z,11.81
2018-09-22T19:54:38.980Z,11.73
2018-09-22T19:57:10.207Z,11.78
2018-09-22T19:59:40.416Z,11.77
2018-09-22T20:02:12.626Z,11.76
2018-09-22T20:07:23.788Z,11.70
2018-09-22T20:09:53.962Z,11.47
2018-09-22T20:12:23.988Z,11.47
2018-09-22T20:14:56.904Z,11.34
2018-09-22T20:17:27.048Z,11.48
2018-09-22T20:19:59.710Z,11.54
2018-09-22T20:22:32.996Z,11.66
2018-09-22T20:25:03.358Z,11.61
2018-09-22T20:27:35.383Z,11.74
2018-09-22T20:30:05.762Z,11.86
2018-09-22T20:32:36.028Z,11.72
2018-09-22T20:35:11.420Z,11.89
2018-09-22T20:37:41.600Z,12.07
2018-09-22T20:40:12.483Z,11.96
2018-09-22T20:42:45.267Z,11.88
2018-09-22T20:45:17.088Z,11.71
2018-09-22T20:47:48.431Z,11.72
2018-09-22T20:50:20.822Z,11.77
2018-09-22T20:52:53.197Z,11.74
2018-09-22T20:55:23.303Z,11.87
2018-09-22T20:57:54.540Z,11.89
2018-09-22T21:00:26.235Z,11.76
2018-09-22T21:02:57.247Z,11.66
2018-09-22T21:05:27.714Z,11.71
2018-09-22T21:07:57.683Z,11.83
2018-09-22T21:10:27.918Z,11.74
2018-09-22T21:12:58.229Z,11.73
2018-09-22T21:15:29.319Z,11.83
2018-09-22T21:17:59.268Z,11.70
2018-09-22T21:20:29.902Z,11.52
2018-09-22T21:23:01.795Z,11.43
2018-09-22T21:25:31.985Z,11.48
2018-09-22T21:28:02.319Z,11.51
2018-09-22T21:30:32.986Z,11.59
2018-09-22T21:33:04.846Z,11.62
2018-09-22T21:35:36.232Z,11.58
2018-09-22T21:38:06.265Z,11.51
2018-09-22T21:40:36.264Z,11.52
2018-09-22T21:43:05.883Z,11.42
2018-09-22T21:45:36.094Z,11.31
2018-09-22T21:48:07.235Z,11.40
2018-09-22T21:50:37.456Z,11.42
2018-09-22T21:53:07.537Z,11.49
2018-09-22T21:55:37.737Z,11.45
2018-09-22T21:58:08.973Z,11.31
2018-09-22T22:00:41.007Z,11.40
2018-09-22T22:03:13.175Z,11.43
2018-09-22T22:05:45.497Z,11.32
2018-09-22T22:08:18.582Z,11.16
2018-09-22T22:10:48.670Z,11.14
2018-09-22T22:13:19.695Z,11.01
2018-09-22T22:15:50.118Z,11.02
2018-09-22T22:18:20.745Z,10.85
2018-09-22T22:20:51.540Z,10.79
2018-09-22T22:23:21.832Z,10.89
2018-09-22T22:25:51.917Z,10.92
2018-09-22T22:28:23.625Z,10.81
2018-09-22T22:30:55.209Z,10.76
2018-09-22T22:33:25.634Z,10.82
2018-09-22T22:35:57.610Z,10.93
2018-09-22T22:38:29.817Z,10.94
2018-09-22T22:41:00.338Z,10.93
2018-09-22T22:43:31.503Z,10.94
2018-09-22T22:46:01.577Z,10.76
2018-09-22T22:49:47.197Z,10.71
2018-09-22T22:52:17.221Z,10.70
2018-09-22T22:54:47.941Z,10.74
2018-09-22T22:57:20.191Z,10.76
2018-09-22T22:59:50.875Z,10.75
2018-09-22T23:02:22.351Z,10.74
2018-09-22T23:04:54.441Z,10.74
2018-09-22T23:07:25.400Z,10.71
2018-09-22T23:09:55.657Z,10.68
2018-09-22T23:12:26.190Z,10.66
2018-09-22T23:14:56.208Z,10.57
2018-09-22T23:17:28.188Z,10.58
2018-09-22T23:19:59.130Z,10.54
2018-09-22T23:22:30.356Z,10.54
2018-09-22T23:25:00.518Z,10.47
2018-09-22T23:27:30.830Z,10.51
2018-09-22T23:30:02.525Z,10.54
2018-09-22T23:32:32.771Z,10.43
2018-09-22T23:35:02.921Z,10.49
2018-09-22T23:37:32.732Z,10.48
2018-09-22T23:40:02.661Z,10.49
2018-09-22T23:42:32.628Z,10.54
2018-09-22T23:45:03.301Z,10.57
2018-09-22T23:47:34.564Z,10.47
2018-09-22T23:50:05.164Z,10.52
2018-09-22T23:52:36.509Z,10.56
2018-09-22T23:55:07.141Z,10.48
2018-09-22T23:57:37.375Z,10.48
